Time;durP1;ratioP1;P1;durP2;ratioP2;P2;SDS_P1;SDS_P2;PMS_P1;PMS_P2;Temp;Humidity;BMP_temperature;BMP_pressure;BME280_temperature;BME280_humidity;BME280_pressure;Samples;Min_cycle;Max_cycle;Signal;HPM_P1;HPM_P2
2022/07/23 00:00:06;;;;;;;2.50;2.40;;;;;;;24.39;65.55;97445.81;5112282;28;20234;-23
2022/07/23 00:02:32;;;;;;;2.70;2.50;;;;;;;24.40;65.58;97433.84;5111937;28;20620;-23
2022/07/23 00:04:59;;;;;;;2.57;2.40;;;;;;;24.39;65.46;97430.38;5105299;28;20202;-23
2022/07/23 00:07:25;;;;;;;2.60;2.47;;;;;;;24.35;64.83;97422.59;5091225;28;20919;-23
2022/07/23 00:09:52;;;;;;;2.80;2.60;;;;;;;24.38;65.22;97430.38;5091481;28;20689;-23
2022/07/23 00:12:19;;;;;;;2.67;2.47;;;;;;;24.37;65.04;97424.34;5090977;28;20238;-24
2022/07/23 00:14:45;;;;;;;2.70;2.50;;;;;;;24.38;65.15;97426.09;5091628;28;20258;-23
2022/07/23 00:17:12;;;;;;;2.77;2.57;;;;;;;24.37;65.29;97424.34;5091031;28;20306;-23
2022/07/23 00:19:38;;;;;;;2.83;2.50;;;;;;;24.38;65.34;97420.97;5091775;28;20246;-21
2022/07/23 00:22:05;;;;;;;2.80;2.60;;;;;;;24.39;65.01;97416.72;5091299;28;20227;-22
2022/07/23 00:24:32;;;;;;;2.80;2.60;;;;;;;24.40;65.50;97418.44;5091552;28;20223;-23
2022/07/23 00:26:58;;;;;;;2.80;2.60;;;;;;;24.40;65.55;97411.59;5091045;28;20655;-23
2022/07/23 00:29:25;;;;;;;2.40;2.30;;;;;;;24.40;65.27;97415.84;5091671;28;20239;-23
2022/07/23 00:31:51;;;;;;;2.43;2.33;;;;;;;24.41;66.17;97409.88;5091501;28;20239;-22
2022/07/23 00:34:18;;;;;;;2.47;2.33;;;;;;;24.41;65.56;97402.16;5091042;28;20269;-23
2022/07/23 00:36:45;;;;;;;2.60;2.40;;;;;;;24.40;65.11;97392.75;5094160;28;20655;-23
2022/07/23 00:39:11;;;;;;;2.60;2.40;;;;;;;24.40;64.98;97392.75;5095127;28;20226;-23
2022/07/23 00:41:38;;;;;;;2.80;2.60;;;;;;;24.40;65.08;97403.00;5095542;28;20282;-23
2022/07/23 00:44:25;;;;;;;2.90;2.70;;;;;;;21.77;65.18;96958.13;5095175;28;20192;-22
2022/07/23 00:46:57;;;;;;;2.47;2.37;;;;;;;24.40;65.04;97410.72;5095236;28;20220;-22
2022/07/23 00:49:27;;;;;;;2.57;2.40;;;;;;;24.39;65.10;97422.69;5094808;28;20203;-23
2022/07/23 00:51:55;;;;;;;2.30;2.20;;;;;;;24.16;65.03;97384.63;5095592;28;20191;-23
2022/07/23 00:54:23;;;;;;;2.70;2.50;;;;;;;24.39;65.18;97417.56;5093294;28;20276;-23
2022/07/23 00:56:50;;;;;;;2.50;2.30;;;;;;;24.39;64.84;97420.13;5094768;28;20302;-22
2022/07/23 00:59:16;;;;;;;2.63;2.43;;;;;;;24.39;65.36;97414.13;5094627;28;20207;-23
2022/07/23 01:01:48;;;;;;;2.30;2.20;;;;;;;24.39;65.08;97422.69;5106066;28;20640;-21
2022/07/23 01:04:15;;;;;;;2.67;2.47;;;;;;;24.40;65.29;97431.28;5113820;28;20621;-23
2022/07/23 01:06:42;;;;;;;2.60;2.40;;;;;;;24.31;65.15;97402.88;5093454;28;20229;-22
2022/07/23 01:09:09;;;;;;;2.80;2.60;;;;;;;24.38;65.12;97413.25;5093637;28;20647;-23
2022/07/23 01:11:36;;;;;;;2.70;2.50;;;;;;;24.39;65.43;97424.41;5095295;28;20290;-22
2022/07/23 01:14:10;;;;;;;2.37;2.27;;;;;;;24.39;65.44;97453.50;5094513;28;20259;-23
2022/07/23 01:16:36;;;;;;;2.40;2.30;;;;;;;24.39;65.50;97475.78;5094676;28;20662;-22
2022/07/23 01:19:06;;;;;;;2.60;2.50;;;;;;;24.38;65.52;97504.88;5094911;28;20199;-22
2022/07/23 01:21:37;;;;;;;2.37;2.27;;;;;;;24.38;64.95;97508.31;5094436;28;20234;-23
2022/07/23 01:24:04;;;;;;;2.67;2.47;;;;;;;24.39;65.46;97509.19;5094413;28;20701;-23
2022/07/23 01:26:31;;;;;;;2.40;2.20;;;;;;;24.39;65.40;97519.47;5093703;28;20282;-23
2022/07/23 01:28:57;;;;;;;2.20;2.10;;;;;;;24.38;65.58;97523.72;5094315;28;20231;-23
2022/07/23 01:31:25;;;;;;;3.00;2.80;;;;;;;24.35;65.67;97522.78;5094201;28;20257;-24
2022/07/23 01:33:56;;;;;;;2.30;2.20;;;;;;;24.39;64.94;97528.00;5094304;28;20215;-24
2022/07/23 01:36:25;;;;;;;2.70;2.50;;;;;;;24.39;65.29;97535.72;5093880;28;20595;-23
2022/07/23 01:38:52;;;;;;;2.70;2.50;;;;;;;24.39;65.54;97545.16;5093897;28;20234;-23
2022/07/23 01:41:19;;;;;;;2.50;2.37;;;;;;;24.38;65.00;97567.38;5093998;28;20618;-23
2022/07/23 01:43:45;;;;;;;2.50;2.30;;;;;;;24.38;65.55;97577.66;5094070;28;20729;-24
2022/07/23 01:46:12;;;;;;;2.43;2.33;;;;;;;24.32;65.40;97569.84;5093559;28;20250;-23
2022/07/23 01:48:38;;;;;;;2.53;2.43;;;;;;;24.38;65.69;97590.50;5093137;28;20545;-23
2022/07/23 01:51:05;;;;;;;2.80;2.60;;;;;;;24.39;65.18;97591.38;5093791;28;20244;-23
2022/07/23 01:53:32;;;;;;;2.60;2.50;;;;;;;24.37;65.51;97582.78;5093432;28;20262;-23
2022/07/23 01:55:58;;;;;;;2.60;2.40;;;;;;;24.33;65.22;97581.84;5093513;28;20224;-23
2022/07/23 01:58:25;;;;;;;2.37;2.20;;;;;;;24.32;65.06;97587.81;5093583;28;20231;-22
2022/07/23 02:00:53;;;;;;;2.40;2.30;;;;;;;24.38;65.12;97623.03;5093679;28;20231;-23
2022/07/23 02:03:20;;;;;;;2.40;2.30;;;;;;;24.30;65.40;97615.19;5093715;28;20204;-24
2022/07/23 02:05:46;;;;;;;2.43;2.33;;;;;;;24.38;65.45;97623.91;5107203;28;20290;-23
2022/07/23 02:08:13;;;;;;;2.30;2.20;;;;;;;24.39;65.21;97624.78;5113916;28;20222;-23
2022/07/23 02:10:39;;;;;;;2.43;2.23;;;;;;;24.39;64.51;97619.66;5113974;28;20238;-23
2022/07/23 02:13:06;;;;;;;2.30;2.20;;;;;;;24.38;65.23;97611.06;5113444;28;20234;-23
2022/07/23 02:15:32;;;;;;;2.67;2.47;;;;;;;24.39;65.44;97615.34;5113767;28;20332;-23
2022/07/23 02:17:59;;;;;;;2.53;2.40;;;;;;;24.40;65.32;97618.81;5113235;28;20755;-23
2022/07/23 02:20:26;;;;;;;2.90;2.70;;;;;;;24.39;65.14;97607.66;5113814;28;20297;-23
2022/07/23 02:22:52;;;;;;;2.37;2.27;;;;;;;24.39;65.44;97597.38;5113524;28;20206;-23
2022/07/23 02:25:19;;;;;;;2.57;2.47;;;;;;;24.39;65.07;97579.38;5113451;28;20234;-23
2022/07/23 02:27:45;;;;;;;2.63;2.43;;;;;;;24.40;65.13;97572.56;5113271;28;20258;-23
2022/07/23 02:30:12;;;;;;;2.40;2.30;;;;;;;24.40;65.42;97572.56;5113613;28;20456;-23
2022/07/23 02:32:39;;;;;;;2.43;2.30;;;;;;;24.40;65.53;97578.56;5113048;28;20233;-22
2022/07/23 02:35:06;;;;;;;2.70;2.50;;;;;;;24.38;65.33;97590.50;5113331;28;20261;-23
2022/07/23 02:37:32;;;;;;;2.23;2.13;;;;;;;24.39;65.46;97596.53;5113442;28;20318;-24
2022/07/23 02:39:59;;;;;;;2.33;2.23;;;;;;;24.39;65.43;97591.38;5113070;28;20234;-23
2022/07/23 02:42:25;;;;;;;2.40;2.30;;;;;;;24.38;65.47;97557.13;5113421;28;20241;-23
2022/07/23 02:44:52;;;;;;;2.30;2.20;;;;;;;24.39;65.18;97555.44;5112885;28;20282;-23
2022/07/23 02:47:19;;;;;;;2.40;2.30;;;;;;;24.38;65.01;97562.25;5112757;28;20226;-23
2022/07/23 02:49:45;;;;;;;2.40;2.27;;;;;;;24.39;65.18;97570.84;5112788;28;20253;-23
2022/07/23 02:52:12;;;;;;;2.40;2.30;;;;;;;24.39;65.68;97571.69;5112736;28;20248;-22
2022/07/23 02:54:38;;;;;;;2.60;2.40;;;;;;;24.38;65.19;97539.13;5112724;28;20247;-23
2022/07/23 02:57:05;;;;;;;2.40;2.30;;;;;;;24.38;65.50;97528.84;5113012;28;20214;-22
2022/07/23 02:59:32;;;;;;;2.50;2.40;;;;;;;24.39;65.30;97550.28;5112625;28;20621;-23
2022/07/23 03:01:58;;;;;;;2.40;2.30;;;;;;;24.38;65.03;97538.25;5112768;28;20253;-23
2022/07/23 03:04:25;;;;;;;2.73;2.53;;;;;;;24.38;65.19;97521.16;5110495;28;20273;-22
2022/07/23 03:06:52;;;;;;;2.20;2.10;;;;;;;24.38;65.56;97522.84;5092229;28;20307;-23
2022/07/23 03:09:18;;;;;;;2.63;2.43;;;;;;;24.38;65.41;97522.84;5092008;28;20199;-23
2022/07/23 03:11:45;;;;;;;2.70;2.50;;;;;;;24.38;65.68;97539.13;5092054;28;20238;-23
2022/07/23 03:14:13;;;;;;;2.47;2.37;;;;;;;24.37;65.52;97544.25;5091670;28;20309;-22
2022/07/23 03:16:39;;;;;;;2.97;2.77;;;;;;;24.37;65.18;97521.97;5091319;28;20227;-23
2022/07/23 03:19:06;;;;;;;2.23;2.13;;;;;;;24.38;65.57;97505.75;5092332;28;20207;-23
2022/07/23 03:21:33;;;;;;;2.57;2.40;;;;;;;24.38;65.07;97502.28;5092000;28;20641;-23
2022/07/23 03:24:01;;;;;;;2.47;2.37;;;;;;;24.38;65.03;97504.88;5091910;28;20191;-23
2022/07/23 03:26:27;;;;;;;2.57;2.40;;;;;;;24.38;65.24;97494.59;5091394;28;20392;-23
2022/07/23 03:28:54;;;;;;;2.63;2.43;;;;;;;24.37;65.69;97505.72;5091951;28;20239;-22
2022/07/23 03:31:21;;;;;;;2.60;2.40;;;;;;;24.38;65.25;97512.56;5091245;28;20195;-23
2022/07/23 03:33:47;;;;;;;2.40;2.30;;;;;;;24.38;65.16;97500.59;5091924;28;20289;-23
2022/07/23 03:36:14;;;;;;;2.70;2.50;;;;;;;24.38;65.40;97510.00;5091474;28;20277;-23
2022/07/23 03:38:40;;;;;;;2.37;2.27;;;;;;;24.36;65.62;97512.53;5091800;28;20291;-22
2022/07/23 03:41:07;;;;;;;2.47;2.37;;;;;;;24.36;65.41;97494.56;5091491;28;20243;-23
2022/07/23 03:43:34;;;;;;;2.47;2.37;;;;;;;24.35;65.15;97474.84;5091683;28;20239;-23
2022/07/23 03:46:01;;;;;;;2.63;2.43;;;;;;;24.37;65.06;97456.91;5090861;28;20215;-23
2022/07/23 03:48:27;;;;;;;2.20;2.10;;;;;;;24.37;65.27;97459.47;5092004;28;20238;-23
2022/07/23 03:50:54;;;;;;;2.57;2.37;;;;;;;24.36;65.22;97460.28;5091385;28;20674;-23
2022/07/23 03:53:20;;;;;;;2.70;2.50;;;;;;;24.34;65.16;97449.16;5091368;28;20685;-24
2022/07/23 03:55:47;;;;;;;2.33;2.23;;;;;;;24.37;65.27;97470.59;5091125;28;20250;-23
2022/07/23 03:58:13;;;;;;;2.50;2.30;;;;;;;24.31;65.55;97457.66;5089979;28;20210;-23
2022/07/23 04:00:40;;;;;;;2.40;2.30;;;;;;;24.37;65.31;97462.03;5091173;28;20670;-22
2022/07/23 04:03:07;;;;;;;2.13;2.03;;;;;;;24.39;65.55;97466.34;5091225;28;20286;-22
2022/07/23 04:05:34;;;;;;;2.43;2.33;;;;;;;24.38;65.43;97462.06;5102819;28;20201;-23
2022/07/23 04:08:00;;;;;;;2.50;2.30;;;;;;;24.34;65.47;97456.84;5111230;28;20305;-23
2022/07/23 04:10:27;;;;;;;2.33;2.23;;;;;;;24.39;65.03;97473.22;5111051;28;20245;-23
2022/07/23 04:12:53;;;;;;;2.60;2.40;;;;;;;24.39;65.51;97479.19;5110909;28;20206;-23
2022/07/23 04:15:20;;;;;;;2.40;2.27;;;;;;;24.35;65.21;97468.84;5111462;28;20250;-23
2022/07/23 04:17:47;;;;;;;2.30;2.20;;;;;;;24.39;65.74;97493.78;5111360;28;20254;-23
2022/07/23 04:20:13;;;;;;;2.30;2.20;;;;;;;24.33;65.51;97480.78;5111808;28;20210;-22
2022/07/23 04:22:40;;;;;;;2.40;2.30;;;;;;;24.37;65.52;97493.72;5111097;28;20245;-22
2022/07/23 04:25:07;;;;;;;2.57;2.40;;;;;;;24.38;65.29;97492.03;5111081;28;20246;-23
2022/07/23 04:27:33;;;;;;;2.80;2.50;;;;;;;24.37;65.10;97483.44;5111154;28;20266;-23
2022/07/23 04:30:00;;;;;;;2.30;2.20;;;;;;;24.37;65.63;97483.44;5111525;28;20249;-22
2022/07/23 04:32:26;;;;;;;2.47;2.30;;;;;;;24.38;65.21;97489.44;5111092;28;20238;-23
2022/07/23 04:34:53;;;;;;;2.20;2.10;;;;;;;24.37;65.37;97491.16;5111457;28;20284;-23
2022/07/23 04:37:20;;;;;;;2.40;2.20;;;;;;;24.38;65.65;97508.31;5111146;28;20254;-22
2022/07/23 04:39:46;;;;;;;2.60;2.43;;;;;;;24.38;65.44;97502.28;5110936;28;20282;-23
2022/07/23 04:42:13;;;;;;;2.60;2.40;;;;;;;24.38;65.28;97497.16;5111368;28;20647;-23
2022/07/23 04:44:39;;;;;;;2.27;2.17;;;;;;;24.37;65.53;97493.72;5111287;28;20229;-22
2022/07/23 04:47:06;;;;;;;2.50;2.40;;;;;;;24.37;65.65;97505.72;5111103;28;20258;-23
2022/07/23 04:49:33;;;;;;;2.47;2.30;;;;;;;24.37;65.43;97501.41;5111026;28;20202;-23
2022/07/23 04:51:59;;;;;;;2.30;2.20;;;;;;;24.37;65.60;97498.00;5111000;28;20231;-22
2022/07/23 04:54:26;;;;;;;2.47;2.30;;;;;;;24.38;65.36;97515.13;5110934;28;20309;-22
2022/07/23 04:56:53;;;;;;;2.50;2.40;;;;;;;24.38;65.44;97510.00;5110746;28;20250;-22
2022/07/23 04:59:19;;;;;;;2.20;2.10;;;;;;;24.37;65.37;97503.16;5110817;28;20279;-22
2022/07/23 05:01:46;;;;;;;2.73;2.53;;;;;;;24.37;65.28;97516.00;5111154;28;20760;-23
2022/07/23 05:04:13;;;;;;;2.50;2.30;;;;;;;24.31;65.46;97509.00;5110441;28;20252;-22
2022/07/23 05:06:39;;;;;;;2.30;2.20;;;;;;;24.37;65.66;97527.09;5090281;28;20220;-22
2022/07/23 05:09:06;;;;;;;2.63;2.30;;;;;;;24.38;65.66;97522.84;5090380;28;20239;-22
2022/07/23 05:11:32;;;;;;;2.60;2.40;;;;;;;24.34;65.44;97510.78;5090629;28;20675;-23
2022/07/23 05:13:59;;;;;;;2.40;2.20;;;;;;;24.37;65.54;97514.25;5089953;28;20265;-23
2022/07/23 05:16:26;;;;;;;2.33;2.23;;;;;;;24.37;65.22;97516.00;5090240;28;20262;-23
2022/07/23 05:18:53;;;;;;;2.47;2.33;;;;;;;24.30;65.45;97509.00;5090498;28;20457;-23
2022/07/23 05:21:20;;;;;;;2.67;2.20;;;;;;;24.36;65.77;97522.81;5090386;28;20627;-23
2022/07/23 05:23:46;;;;;;;2.10;2.00;;;;;;;24.36;65.26;97516.81;5093525;28;20574;-23
2022/07/23 05:26:13;;;;;;;2.67;2.47;;;;;;;24.36;64.91;97511.66;5093822;28;20663;-23
2022/07/23 05:28:39;;;;;;;2.10;2.00;;;;;;;24.36;65.41;97519.38;5094194;28;20235;-23
2022/07/23 05:31:10;;;;;;;2.40;2.30;;;;;;;24.37;65.36;97503.16;5093681;28;20202;-22
2022/07/23 05:33:37;;;;;;;2.20;2.10;;;;;;;24.37;65.34;97513.41;5094116;28;20227;-23
2022/07/23 05:36:04;;;;;;;2.90;2.70;;;;;;;24.37;65.58;97513.41;5093589;28;20259;-23
2022/07/23 05:38:31;;;;;;;2.53;2.33;;;;;;;24.37;65.39;97514.25;5094151;28;20246;-23
2022/07/23 05:40:58;;;;;;;2.50;2.30;;;;;;;24.27;65.23;97507.25;5093833;28;20234;-23
2022/07/23 05:43:25;;;;;;;2.10;2.00;;;;;;;24.39;65.26;97528.00;5093791;28;20227;-22
2022/07/23 05:45:51;;;;;;;2.43;2.23;;;;;;;24.38;65.32;97522.84;5093247;28;20242;-22
2022/07/23 05:48:18;;;;;;;2.63;2.43;;;;;;;24.38;65.35;97521.16;5093993;28;20554;-22
2022/07/23 05:50:44;;;;;;;2.50;2.30;;;;;;;24.38;65.20;97517.72;5093815;28;20206;-23
2022/07/23 05:53:11;;;;;;;2.50;2.37;;;;;;;24.38;65.58;97513.44;5093324;28;20729;-23
2022/07/23 05:55:37;;;;;;;2.60;2.40;;;;;;;24.38;65.61;97523.72;5093475;28;20666;-23
2022/07/23 05:58:04;;;;;;;2.67;2.47;;;;;;;24.38;65.75;97518.59;5093616;28;20239;-23
2022/07/23 06:00:31;;;;;;;2.50;2.30;;;;;;;24.37;65.39;97519.41;5093560;28;20199;-22
2022/07/23 06:02:57;;;;;;;2.60;2.40;;;;;;;24.38;65.39;97516.00;5093394;28;20196;-23
2022/07/23 06:05:25;;;;;;;2.30;2.20;;;;;;;24.38;65.41;97517.72;5104156;28;20191;-23
2022/07/23 06:07:52;;;;;;;2.20;2.10;;;;;;;24.38;65.51;97522.84;5113446;28;20268;-23
2022/07/23 06:10:19;;;;;;;2.33;2.23;;;;;;;24.37;65.27;97521.13;5113985;28;20234;-24
2022/07/23 06:12:46;;;;;;;2.20;2.10;;;;;;;24.37;65.13;97533.97;5112958;28;20249;-23
2022/07/23 06:15:12;;;;;;;2.63;2.43;;;;;;;24.37;65.28;97527.09;5113584;28;20250;-22
2022/07/23 06:17:39;;;;;;;2.40;2.30;;;;;;;24.34;65.73;97521.91;5113424;28;20251;-23
2022/07/23 06:20:07;;;;;;;2.57;2.37;;;;;;;24.25;65.32;97516.59;5113466;28;20238;-22
2022/07/23 06:22:34;;;;;;;2.20;2.10;;;;;;;24.37;65.68;97550.22;5113351;28;20251;-22
2022/07/23 06:25:01;;;;;;;2.40;2.30;;;;;;;24.38;65.19;97557.13;5113265;28;20578;-22
2022/07/23 06:27:28;;;;;;;2.30;2.20;;;;;;;24.37;65.29;97552.78;5113115;28;20309;-22
2022/07/23 06:29:54;;;;;;;2.33;2.23;;;;;;;24.38;65.87;97551.97;5113427;28;20242;-22
2022/07/23 06:32:21;;;;;;;2.63;2.43;;;;;;;24.37;65.19;97555.38;5113167;28;20237;-23
2022/07/23 06:34:47;;;;;;;2.20;2.10;;;;;;;24.29;65.43;97553.50;5113047;28;20272;-23
2022/07/23 06:37:14;;;;;;;2.40;2.30;;;;;;;24.38;65.62;97569.09;5113021;28;20630;-23
2022/07/23 06:39:41;;;;;;;2.20;2.10;;;;;;;24.37;65.22;97563.06;5112938;28;20214;-23
2022/07/23 06:42:10;;;;;;;2.20;2.10;;;;;;;24.37;65.33;97569.94;5113315;28;20241;-23
2022/07/23 06:44:36;;;;;;;2.10;2.00;;;;;;;24.38;65.58;97571.66;5113298;28;20278;-22
2022/07/23 06:47:03;;;;;;;2.20;2.10;;;;;;;24.35;65.22;97559.63;5112873;28;20265;-22
2022/07/23 06:49:29;;;;;;;2.37;2.27;;;;;;;24.38;65.30;97563.94;5113123;28;20220;-22
2022/07/23 06:51:56;;;;;;;2.40;2.30;;;;;;;24.37;65.39;97565.63;5112856;28;20245;-23
2022/07/23 06:54:23;;;;;;;2.80;2.60;;;;;;;24.37;65.31;97573.34;5112464;28;20279;-22
2022/07/23 06:56:50;;;;;;;2.40;2.30;;;;;;;24.36;65.41;97579.34;5112576;28;20309;-23
2022/07/23 06:59:16;;;;;;;2.13;2.03;;;;;;;24.36;65.31;97579.34;5112315;28;20278;-23
2022/07/23 07:01:43;;;;;;;2.30;2.20;;;;;;;24.36;65.46;97584.47;5112921;28;20226;-22
2022/07/23 07:04:09;;;;;;;2.10;2.00;;;;;;;24.36;65.17;97587.03;5112452;27;20236;-23
2022/07/23 07:06:36;;;;;;;2.60;2.40;;;;;;;24.37;65.49;97591.31;5092062;28;20212;-22
2022/07/23 07:09:02;;;;;;;2.40;2.30;;;;;;;24.37;65.36;97593.06;5092227;28;20278;-23
2022/07/23 07:11:30;;;;;;;2.33;2.23;;;;;;;24.37;65.59;97593.91;5092231;28;20307;-23
2022/07/23 07:13:56;;;;;;;2.40;2.20;;;;;;;24.38;65.56;97594.78;5091867;28;20246;-22
2022/07/23 07:16:23;;;;;;;2.30;2.20;;;;;;;24.39;65.03;97597.38;5091728;28;20259;-23
2022/07/23 07:18:56;;;;;;;2.40;2.30;;;;;;;24.39;65.47;97604.22;5091879;28;20199;-23
2022/07/23 07:21:22;;;;;;;2.23;2.13;;;;;;;24.39;65.70;97606.81;5091958;28;20260;-23
2022/07/23 07:23:49;;;;;;;2.20;2.10;;;;;;;24.38;65.20;97605.94;5091947;28;20253;-22
2022/07/23 07:26:15;;;;;;;2.37;2.20;;;;;;;24.38;65.60;97607.63;5091613;28;20262;-23
2022/07/23 07:28:42;;;;;;;2.10;2.00;;;;;;;24.38;65.34;97598.22;5091831;28;20203;-23
2022/07/23 07:31:08;;;;;;;2.40;2.20;;;;;;;24.38;65.08;97608.50;5091558;28;20589;-23
2022/07/23 07:33:35;;;;;;;2.30;2.20;;;;;;;24.38;65.24;97607.63;5091913;28;20221;-23
2022/07/23 07:36:02;;;;;;;2.23;2.10;;;;;;;24.39;65.23;97611.94;5091122;28;20259;-22
2022/07/23 07:38:29;;;;;;;2.20;2.10;;;;;;;24.38;65.50;97603.34;5091795;28;20580;-22
2022/07/23 07:40:55;;;;;;;2.30;2.20;;;;;;;24.39;65.04;97604.22;5091659;28;20234;-23
2022/07/23 07:43:22;;;;;;;2.20;2.10;;;;;;;24.38;65.36;97608.50;5091682;28;20228;-22
2022/07/23 07:45:49;;;;;;;2.40;2.20;;;;;;;24.39;65.46;97604.22;5090350;28;20294;-22
2022/07/23 07:48:15;;;;;;;2.00;1.90;;;;;;;24.38;65.25;97605.06;5091707;28;20282;-23
2022/07/23 07:50:42;;;;;;;2.67;2.47;;;;;;;24.39;65.13;97617.09;5091525;28;20490;-23
2022/07/23 07:53:09;;;;;;;2.10;2.00;;;;;;;24.32;65.54;97610.94;5091188;28;20225;-23
2022/07/23 07:55:36;;;;;;;2.20;2.10;;;;;;;24.38;65.25;97612.75;5091312;28;20388;-23
2022/07/23 07:58:03;;;;;;;2.27;2.17;;;;;;;24.38;65.56;97613.63;5091786;28;20203;-23
2022/07/23 08:00:30;;;;;;;2.40;2.30;;;;;;;24.38;65.67;97608.50;5091325;28;20238;-23
2022/07/23 08:02:58;;;;;;;2.33;2.23;;;;;;;24.38;65.50;97605.06;5091050;28;20196;-23
2022/07/23 08:05:26;;;;;;;2.60;2.40;;;;;;;24.39;65.30;97611.94;5101526;28;20657;-23
2022/07/23 08:07:57;;;;;;;2.20;2.10;;;;;;;24.38;65.27;97615.31;5111463;28;20218;-23
2022/07/23 08:10:25;;;;;;;2.10;2.00;;;;;;;24.34;65.24;97606.69;5111720;28;20195;-22
2022/07/23 08:12:53;;;;;;;2.37;2.27;;;;;;;24.38;65.56;97620.47;5111529;28;20301;-23
2022/07/23 08:15:21;;;;;;;2.20;2.10;;;;;;;24.39;65.43;97632.50;5111557;28;20219;-22
2022/07/23 08:17:47;;;;;;;2.40;2.30;;;;;;;24.32;65.26;97634.06;5111250;28;20604;-23
2022/07/23 08:20:15;;;;;;;2.60;2.40;;;;;;;24.38;65.45;97639.31;5111340;28;20183;-23
2022/07/23 08:23:03;;;;;;;2.30;2.20;;;;;;;24.38;65.61;97641.88;5111589;28;20230;-23
2022/07/23 08:25:34;;;;;;;2.17;2.07;;;;;;;24.38;65.36;97641.00;5111450;28;20222;-23
2022/07/23 08:28:03;;;;;;;2.27;2.17;;;;;;;24.29;65.40;97634.00;5090957;22;20701;-32
2022/07/23 08:30:30;;;;;;;2.17;2.07;;;;;;;24.38;65.19;97641.88;5052946;28;20196;-32
2022/07/23 08:33:07;;;;;;;2.40;2.30;;;;;;;24.38;65.58;97636.75;5053199;28;20589;-31
2022/07/23 08:35:36;;;;;;;2.27;2.17;;;;;;;24.39;65.51;97642.78;5052933;28;20217;-32
2022/07/23 08:38:04;;;;;;;2.13;2.03;;;;;;;24.36;65.52;97635.84;5052942;28;20654;-32
2022/07/23 08:40:32;;;;;;;2.20;2.10;;;;;;;24.40;65.09;97642.78;5053431;28;20213;-32
2022/07/23 08:42:59;;;;;;;2.20;2.10;;;;;;;24.41;65.09;97643.66;5035656;28;20273;-32
2022/07/23 08:45:26;;;;;;;2.70;2.50;;;;;;;24.39;65.38;97641.03;5053458;28;20220;-32
2022/07/23 08:47:54;;;;;;;2.50;2.30;;;;;;;24.40;65.21;97645.38;5053463;28;20343;-32
2022/07/23 08:50:21;;;;;;;1.93;1.83;;;;;;;24.41;65.17;97643.66;5035490;28;20715;-32
2022/07/23 08:52:49;;;;;;;2.23;2.13;;;;;;;24.41;65.45;97641.06;5035609;28;20303;-32
2022/07/23 08:55:17;;;;;;;2.37;2.20;;;;;;;24.41;65.13;97638.50;5052796;28;20225;-31
2022/07/23 08:57:45;;;;;;;2.20;2.10;;;;;;;24.41;65.40;97648.78;5056068;28;20248;-32
2022/07/23 09:00:12;;;;;;;2.23;2.13;;;;;;;24.40;65.32;97647.94;5022917;28;20205;-32
2022/07/23 09:02:42;;;;;;;2.37;2.27;;;;;;;24.41;65.48;97654.78;5057361;28;20644;-32
2022/07/23 09:05:10;;;;;;;2.30;2.20;;;;;;;24.34;65.03;97640.06;5047523;28;20253;-31
2022/07/23 09:07:38;;;;;;;2.43;2.33;;;;;;;24.36;65.58;97645.25;5059928;28;20228;-32
2022/07/23 09:10:09;;;;;;;1.97;1.87;;;;;;;24.40;65.48;97639.34;5076977;28;20235;-31
2022/07/23 09:12:37;;;;;;;2.23;2.13;;;;;;;24.36;65.26;97622.13;5075036;28;20200;-32
2022/07/23 09:15:05;;;;;;;2.13;2.03;;;;;;;24.40;65.56;97639.34;5075013;28;20228;-31
2022/07/23 09:17:40;;;;;;;2.13;2.03;;;;;;;24.40;65.22;97634.22;5075331;28;20606;-31
2022/07/23 09:20:11;;;;;;;1.97;1.87;;;;;;;24.40;65.50;97626.50;5075253;28;20203;-31
2022/07/23 09:22:46;;;;;;;2.30;2.20;;;;;;;24.40;65.36;97621.38;5057948;28;20261;-31
2022/07/23 09:25:17;;;;;;;2.40;2.20;;;;;;;24.39;65.46;97620.50;5057724;28;20230;-31
2022/07/23 09:27:57;;;;;;;2.33;2.23;;;;;;;24.40;65.36;97616.22;5075243;28;20709;-31
2022/07/23 09:30:27;;;;;;;2.10;2.00;;;;;;;24.40;65.33;97622.25;5075063;28;20261;-31
2022/07/23 09:33:06;;;;;;;2.23;2.03;;;;;;;24.40;65.23;97621.38;5075364;28;20608;-31
2022/07/23 09:35:53;;;;;;;2.27;2.17;;;;;;;24.40;65.72;97621.38;5075022;28;20511;-32
2022/07/23 09:38:20;;;;;;;2.27;2.13;;;;;;;24.40;65.36;97631.66;5075650;28;20312;-31
2022/07/23 09:41:04;;;;;;;2.37;2.27;;;;;;;24.39;65.62;97629.94;5075399;28;20227;-31
2022/07/23 09:43:30;;;;;;;2.30;2.20;;;;;;;24.40;65.31;97626.50;5075654;28;20246;-31
2022/07/23 09:46:20;;;;;;;2.20;2.10;;;;;;;24.39;65.27;97620.50;5074988;28;20297;-31
2022/07/23 09:48:47;;;;;;;2.10;2.00;;;;;;;24.38;65.16;97618.78;5075321;28;20204;-32
2022/07/23 09:51:21;;;;;;;2.50;2.40;;;;;;;24.33;65.20;97604.97;5074914;28;20693;-31
2022/07/23 09:53:47;;;;;;;2.27;2.17;;;;;;;24.38;64.82;97623.91;5058451;28;20235;-32
2022/07/23 09:56:15;;;;;;;2.10;2.00;;;;;;;24.38;65.73;97605.06;5075078;28;20220;-31
2022/07/23 09:58:49;;;;;;;2.20;2.10;;;;;;;24.38;65.45;97605.94;5075307;28;20205;-32
2022/07/23 10:01:15;;;;;;;2.13;2.03;;;;;;;24.39;65.67;97611.94;5057508;28;20290;-31
2022/07/23 10:03:42;;;;;;;2.10;2.00;;;;;;;24.39;65.41;97601.66;5075286;28;20200;-31
2022/07/23 10:06:10;;;;;;;2.20;2.10;;;;;;;24.40;65.51;97595.69;5040439;28;20631;-31
2022/07/23 10:08:38;;;;;;;2.53;2.33;;;;;;;24.38;65.67;97594.78;5054907;28;20584;-32
2022/07/23 10:11:04;;;;;;;2.10;2.00;;;;;;;24.33;65.50;97575.81;5020981;28;20240;-31
2022/07/23 10:16:00;;;;;;;2.43;2.33;;;;;;;24.35;65.53;97582.75;5021576;28;20248;-31
2022/07/23 10:18:27;;;;;;;2.30;2.20;;;;;;;24.35;65.14;97579.31;5037596;28;20232;-32
2022/07/23 10:20:53;;;;;;;2.50;2.30;;;;;;;24.41;66.04;97597.41;5020718;28;20338;-32
2022/07/23 10:23:35;;;;;;;2.27;2.17;;;;;;;24.41;65.12;97589.69;5037154;28;20644;-31
2022/07/23 10:26:12;;;;;;;2.17;2.07;;;;;;;24.40;65.29;97596.56;5038774;28;20228;-31
2022/07/23 10:29:07;;;;;;;2.20;2.10;;;;;;;24.41;65.10;97589.69;5036798;28;20292;-31
2022/07/23 10:31:58;;;;;;;2.17;2.03;;;;;;;24.41;65.40;97592.25;5055181;28;20236;-31
2022/07/23 10:34:55;;;;;;;2.20;2.10;;;;;;;24.40;65.44;97593.09;5037921;28;20223;-32
2022/07/23 10:37:25;;;;;;;2.60;2.40;;;;;;;24.40;65.55;97585.41;5000273;28;20636;-31
2022/07/23 10:40:18;;;;;;;2.10;2.00;;;;;;;24.40;65.32;97588.84;5037390;28;20255;-31
2022/07/23 10:42:45;;;;;;;2.10;2.00;;;;;;;24.39;65.18;97579.38;5055215;28;20204;-32
2022/07/23 10:45:34;;;;;;;2.10;2.00;;;;;;;24.40;65.58;97577.69;5054753;28;20201;-32
2022/07/23 10:48:15;;;;;;;2.20;2.10;;;;;;;24.39;65.54;97571.69;5055135;28;20217;-32
2022/07/23 10:50:42;;;;;;;2.20;2.10;;;;;;;24.39;65.70;97570.84;5056090;28;20196;-32
2022/07/23 10:53:15;;;;;;;2.23;2.13;;;;;;;24.37;65.18;97565.63;5054889;28;20727;-32
2022/07/23 10:55:43;;;;;;;2.07;1.97;;;;;;;24.39;65.51;97568.28;5055056;28;20248;-35
2022/07/23 10:58:10;;;;;;;2.20;2.10;;;;;;;24.39;65.60;97563.13;5055289;28;20256;-32
2022/07/23 11:00:36;;;;;;;2.40;2.20;;;;;;;24.39;65.46;97566.53;5055734;28;20280;-32
2022/07/23 11:03:07;;;;;;;2.17;2.07;;;;;;;24.39;65.46;97568.28;5055256;28;20232;-32
2022/07/23 11:05:44;;;;;;;2.10;2.00;;;;;;;24.39;65.13;97563.97;5048922;28;20228;-32
2022/07/23 11:08:16;;;;;;;2.37;2.27;;;;;;;24.39;65.26;97552.84;5075683;28;20215;-31
2022/07/23 11:10:54;;;;;;;2.27;2.17;;;;;;;24.36;65.14;97552.75;5075194;28;20200;-32
2022/07/23 11:13:23;;;;;;;2.17;2.07;;;;;;;24.39;65.56;97561.41;5075128;28;20211;-31
2022/07/23 11:16:10;;;;;;;2.20;2.10;;;;;;;24.39;65.27;97552.84;5074807;28;20666;-32
2022/07/23 11:18:40;;;;;;;2.20;2.10;;;;;;;24.39;65.57;97556.28;5073291;28;20277;-31
2022/07/23 11:21:29;;;;;;;2.17;2.07;;;;;;;24.39;65.54;97553.69;5072151;28;20275;-31
2022/07/23 11:24:13;;;;;;;2.00;1.90;;;;;;;24.36;65.39;97552.75;5073127;28;20200;-31
2022/07/23 11:26:43;;;;;;;2.40;2.30;;;;;;;24.39;65.48;97546.00;5073056;28;20631;-31
2022/07/23 11:31:56;;;;;;;2.20;2.10;;;;;;;24.40;65.40;97549.44;5073306;28;20200;-31
2022/07/23 11:34:30;;;;;;;1.90;1.80;;;;;;;24.40;65.47;97544.31;5073526;28;20242;-31
2022/07/23 11:36:57;;;;;;;2.37;2.27;;;;;;;24.37;65.08;97536.53;5072902;28;20778;-31
2022/07/23 11:39:25;;;;;;;2.00;1.90;;;;;;;24.40;65.51;97528.88;5073063;28;20624;-32
2022/07/23 11:41:52;;;;;;;2.23;2.10;;;;;;;24.37;65.06;97523.69;5072634;28;20578;-31
2022/07/23 11:44:25;;;;;;;2.20;2.10;;;;;;;24.40;65.45;97537.47;5073261;28;20239;-31